Siemreap, Cambodia

1:14 AM ICT on September 18, 2014 (GMT +0700)
Siem Reap | Change Station
CLOSE
Current Station
Airport
Location: Siemreap,
Elevation: 49 ft
Nearby Weather Stations

Elev 49 ft 13.37 °N, 103.85 °E | Updated 14 minutes ago

Scattered Clouds
Scattered Clouds
81 °F
Feels Like 86 °F
N
1
Wind Variable Wind from SE

Today
High -- | Low -- °F
--% Chance of Precip.
Yesterday
High -- | Low -- °F
Precip. -- in
5:53 AM 6:03 PM
Waning Crescent, 34% visible
Pressure 29.80 in
Visibility 5.6 miles
Clouds Few 2000 ft
Scattered Clouds 15000 ft
Heat Index 86 °F
Dew Point 75 °F
Humidity 84%
Rainfall 0.00 in
Snow Depth Not available.
UV 0 out of 12
Pollen Not available.
Air Quality Not available.
Flu Activity Not available.
METAR VDSR 171800Z 14001KT 9000 FEW020 SCT150 27/24 Q1009

More Conditions Fewer Conditions

Pressure 29.80 in
Visibility 5.6 miles
Clouds Few 2000 ft
Scattered Clouds 15000 ft
Heat Index 86 °F
Dew Point 75 °F
Humidity 84%
Rainfall 0.00 in
Snow Depth Not available.
UV 0 out of 12
Pollen Not available.
Air Quality Not available.
Flu Activity Not available.
METAR VDSR 171800Z 14001KT 9000 FEW020 SCT150 27/24 Q1009

More Conditions Fewer Conditions

10-Day Weather Forecast

Almanac

Astronomy

Sep. 18, 2014 Rise Set
Actual Time 5:53 AM ICT 6:03 PM ICT
Civil Twilight 5:32 AM ICT 6:25 PM ICT
Nautical Twilight 5:07 AM ICT 6:49 PM ICT
Astronomical Twilight 4:42 AM ICT 7:14 PM ICT
Moon 12:57 AM ICT (9/18) 1:55 PM ICT (9/18)
Length of Visible Light 12h 52m
Length of Day
12h 10m
Tomorrow will be 0m 45s shorter.
Waning Crescent, 34% of the Moon is Illuminated
Sep 17
Waning Crescent
Sep 24
New
Oct 1
First Quarter
Oct 8
Full
Oct 15
Last Quarter

Yesterday's Extremes

Country Highs Country Lows

Community

WunderPhotos

Upload Photos

1,754,122 photos uploaded!

WunderBlogs® & News

Nearby

Snow Depth

Not available.

Earthquake Activity

City Distance Mag. Time & Date
No recent earthquake activity has been reported nearby.
Minimum magnitude displayed is 2.5.

Coastal Water Temperatures

Place Temperature
No Stations Reporting

Nearby Weather Stations